createdAt,value
2023-05-16T00:02:10.653Z,9.81
2023-05-16T00:04:37.208Z,9.77
2023-05-16T00:07:03.747Z,9.72
2023-05-16T00:09:30.068Z,9.68
2023-05-16T00:11:56.928Z,9.64
2023-05-16T00:14:26.148Z,9.65
2023-05-16T00:16:58.978Z,9.64
2023-05-16T00:19:26.612Z,9.62
2023-05-16T00:21:52.949Z,9.59
2023-05-16T00:24:19.340Z,9.57
2023-05-16T00:26:45.658Z,9.52
2023-05-16T00:29:11.981Z,9.50
2023-05-16T00:31:38.332Z,9.46
2023-05-16T00:34:04.733Z,9.42
2023-05-16T00:36:31.614Z,9.38
2023-05-16T00:38:57.986Z,9.33
2023-05-16T00:41:25.247Z,9.28
2023-05-16T00:43:51.642Z,9.24
2023-05-16T00:46:18.096Z,9.22
2023-05-16T00:48:44.714Z,9.19
2023-05-16T00:51:11.274Z,9.14
2023-05-16T00:53:38.304Z,9.12
2023-05-16T00:56:06.981Z,9.08
2023-05-16T00:58:33.865Z,9.06
2023-05-16T01:01:03.659Z,9.02
2023-05-16T01:03:30.293Z,9.00
2023-05-16T01:05:57.909Z,8.98
2023-05-16T01:08:24.244Z,8.93
2023-05-16T01:11:02.578Z,8.91
2023-05-16T01:13:40.982Z,8.87
2023-05-16T01:16:20.837Z,8.83
2023-05-16T01:19:23.438Z,8.80
2023-05-16T01:22:16.201Z,8.77
2023-05-16T01:25:05.449Z,8.71
2023-05-16T01:27:32.881Z,8.68
2023-05-16T01:29:59.191Z,8.65
2023-05-16T01:32:25.682Z,8.63
2023-05-16T01:34:52.485Z,8.61
2023-05-16T01:37:29.168Z,8.60
2023-05-16T01:40:02.419Z,8.60
2023-05-16T01:42:33.023Z,8.56
2023-05-16T01:45:09.929Z,8.52
2023-05-16T01:47:41.356Z,8.50
2023-05-16T01:50:15.757Z,8.47
2023-05-16T01:52:48.088Z,8.44
2023-05-16T01:55:39.078Z,8.41
2023-05-16T01:58:08.309Z,8.38
2023-05-16T02:00:34.827Z,8.35
2023-05-16T02:03:01.325Z,8.32
2023-05-16T02:05:28.208Z,8.33
2023-05-16T02:07:55.419Z,8.32
2023-05-16T02:10:22.369Z,8.31
2023-05-16T02:12:50.203Z,8.26
2023-05-16T02:15:16.522Z,8.26
2023-05-16T02:17:42.894Z,8.25
2023-05-16T02:20:10.156Z,8.22
2023-05-16T02:22:37.546Z,8.20
2023-05-16T02:25:04.118Z,8.16
2023-05-16T02:27:30.578Z,8.16
2023-05-16T02:29:57.187Z,8.15
2023-05-16T02:32:23.874Z,8.14
2023-05-16T02:34:50.389Z,8.13
2023-05-16T02:37:16.716Z,8.10
2023-05-16T02:39:43.025Z,8.09
2023-05-16T02:42:09.425Z,8.07
2023-05-16T02:44:35.741Z,8.05
2023-05-16T02:47:02.076Z,8.03
2023-05-16T02:49:28.424Z,8.04
2023-05-16T02:51:54.737Z,8.00
2023-05-16T02:54:21.391Z,8.00
2023-05-16T02:56:47.715Z,7.96
2023-05-16T02:59:14.014Z,7.95
2023-05-16T03:01:40.494Z,7.93
2023-05-16T03:04:07.053Z,7.91
2023-05-16T03:06:33.534Z,7.85
2023-05-16T03:08:59.865Z,7.82
2023-05-16T03:11:26.805Z,7.77
2023-05-16T03:13:53.282Z,7.75
2023-05-16T03:16:19.623Z,7.69
2023-05-16T03:18:46.004Z,7.65
2023-05-16T03:21:12.362Z,7.61
2023-05-16T03:23:38.684Z,7.57
2023-05-16T03:26:05.173Z,7.54
2023-05-16T03:28:31.705Z,7.51
2023-05-16T03:30:58.657Z,7.47
2023-05-16T03:33:24.985Z,7.42
2023-05-16T03:35:52.126Z,7.41
2023-05-16T03:38:18.561Z,7.39
2023-05-16T03:40:45.266Z,7.35
2023-05-16T03:43:11.666Z,7.33
2023-05-16T03:45:38.507Z,7.33
2023-05-16T03:48:05.013Z,7.30
2023-05-16T03:50:31.384Z,7.29
2023-05-16T03:52:57.679Z,7.25
2023-05-16T03:55:23.998Z,7.25
2023-05-16T03:57:52.278Z,7.25
2023-05-16T04:00:18.700Z,7.22
2023-05-16T04:02:45.414Z,7.22
2023-05-16T04:05:12.364Z,7.22
2023-05-16T04:07:38.763Z,7.21
2023-05-16T04:10:06.314Z,7.24
2023-05-16T04:12:32.841Z,7.21
2023-05-16T04:14:59.256Z,7.23
2023-05-16T04:17:25.641Z,7.26
2023-05-16T04:19:52.028Z,7.25
2023-05-16T04:22:21.891Z,7.26
2023-05-16T04:24:48.987Z,7.25
2023-05-16T04:27:15.444Z,7.27
2023-05-16T04:29:41.925Z,7.28
2023-05-16T04:32:08.497Z,7.30
2023-05-16T04:34:39.660Z,7.33
2023-05-16T04:37:08.067Z,7.38
2023-05-16T04:39:36.170Z,7.39
2023-05-16T04:42:03.373Z,7.40
2023-05-16T04:44:29.986Z,7.42
2023-05-16T04:46:56.836Z,7.46
2023-05-16T04:49:23.325Z,7.45
2023-05-16T04:51:49.698Z,7.48
2023-05-16T04:54:16.111Z,7.52
2023-05-16T04:56:42.477Z,7.56
2023-05-16T04:59:08.833Z,7.60
2023-05-16T05:01:35.585Z,7.66
2023-05-16T05:04:01.930Z,7.72
2023-05-16T05:06:28.272Z,7.78
2023-05-16T05:08:54.850Z,7.83
2023-05-16T05:11:21.379Z,7.87
2023-05-16T05:13:47.708Z,7.93
2023-05-16T05:16:14.047Z,8.01
2023-05-16T05:18:40.441Z,8.09
2023-05-16T05:21:06.872Z,8.13
2023-05-16T05:23:34.851Z,8.22
2023-05-16T05:26:02.131Z,8.31
2023-05-16T05:28:28.465Z,8.38
2023-05-16T05:30:54.907Z,8.46
2023-05-16T05:33:26.782Z,8.54
2023-05-16T05:35:54.006Z,8.63
2023-05-16T05:38:20.394Z,8.71
2023-05-16T05:40:46.735Z,8.81
2023-05-16T05:43:13.272Z,8.90
2023-05-16T05:45:39.680Z,8.99
2023-05-16T05:48:06.625Z,9.26
2023-05-16T05:50:33.887Z,9.63
2023-05-16T05:53:00.376Z,9.60
2023-05-16T05:55:26.981Z,9.67
2023-05-16T05:57:53.787Z,9.65
2023-05-16T06:00:20.333Z,9.65
2023-05-16T06:02:47.297Z,9.64
2023-05-16T06:05:13.777Z,9.69
2023-05-16T06:07:40.273Z,9.92
2023-05-16T06:10:08.466Z,11.34
2023-05-16T06:12:34.818Z,11.69
2023-05-16T06:15:02.483Z,11.47
2023-05-16T06:17:28.900Z,11.78
2023-05-16T06:19:55.388Z,11.60
2023-05-16T06:22:21.765Z,11.24
2023-05-16T06:24:48.096Z,11.01
2023-05-16T06:27:14.685Z,10.92
2023-05-16T06:29:48.108Z,11.13
2023-05-16T06:32:15.344Z,11.41
2023-05-16T06:34:42.784Z,11.95
2023-05-16T06:37:09.697Z,11.90
2023-05-16T06:39:36.262Z,11.80
2023-05-16T06:42:02.729Z,13.16
2023-05-16T06:44:29.120Z,13.85
2023-05-16T06:46:55.567Z,14.32
2023-05-16T06:49:22.126Z,16.12
2023-05-16T06:51:48.504Z,16.08
2023-05-16T06:54:15.016Z,14.22
2023-05-16T06:56:41.439Z,13.36
2023-05-16T06:59:07.993Z,13.19
2023-05-16T07:01:34.411Z,13.43
2023-05-16T07:04:01.031Z,13.74
2023-05-16T07:06:27.660Z,13.23
2023-05-16T07:08:54.016Z,13.47
2023-05-16T07:11:21.396Z,14.07
2023-05-16T07:13:47.786Z,14.19
2023-05-16T07:16:14.328Z,13.80
2023-05-16T07:18:40.862Z,14.66
2023-05-16T07:21:07.264Z,15.00
2023-05-16T07:23:34.170Z,15.02
2023-05-16T07:26:00.660Z,15.51
2023-05-16T07:28:27.878Z,14.83
2023-05-16T07:30:54.684Z,14.13
2023-05-16T07:33:21.287Z,13.83
2023-05-16T07:35:47.714Z,14.24
2023-05-16T07:38:14.073Z,14.36
2023-05-16T07:40:40.496Z,14.62
2023-05-16T07:43:06.946Z,14.72
2023-05-16T07:45:33.471Z,15.12
2023-05-16T07:48:00.306Z,15.43
2023-05-16T07:50:27.309Z,14.46
2023-05-16T07:52:53.751Z,14.34
2023-05-16T07:55:22.077Z,14.61
2023-05-16T07:57:49.412Z,14.47
2023-05-16T08:00:16.662Z,14.76
2023-05-16T08:02:43.238Z,14.67
2023-05-16T08:05:09.979Z,14.14
2023-05-16T08:07:36.552Z,13.67
2023-05-16T08:10:03.566Z,13.17
2023-05-16T08:12:30.967Z,12.87
2023-05-16T08:14:57.344Z,12.58
2023-05-16T08:17:23.840Z,12.48
2023-05-16T08:19:50.359Z,12.39
2023-05-16T08:22:16.715Z,12.72
2023-05-16T08:24:43.120Z,12.89
2023-05-16T08:27:09.609Z,13.12
2023-05-16T08:29:36.386Z,13.37
2023-05-16T08:32:02.785Z,13.45
2023-05-16T08:34:31.985Z,13.77
2023-05-16T08:36:58.471Z,13.95
2023-05-16T08:39:24.865Z,13.89
2023-05-16T08:41:51.356Z,13.69
2023-05-16T08:44:21.660Z,13.39
2023-05-16T08:46:53.128Z,13.10
2023-05-16T08:49:20.832Z,13.01
2023-05-16T08:51:49.332Z,13.05
2023-05-16T08:54:16.866Z,13.07
2023-05-16T08:56:45.043Z,13.17
2023-05-16T08:59:12.479Z,13.34
2023-05-16T09:01:39.345Z,13.49
2023-05-16T09:04:07.960Z,13.65
2023-05-16T09:06:35.151Z,13.79
2023-05-16T09:09:02.978Z,13.95
2023-05-16T09:11:29.553Z,14.14
2023-05-16T09:13:55.999Z,14.37
2023-05-16T09:16:22.533Z,14.26
2023-05-16T09:19:01.804Z,14.13
2023-05-16T09:21:33.645Z,13.67
2023-05-16T09:24:08.626Z,13.86
2023-05-16T09:26:37.530Z,14.03
2023-05-16T09:29:12.034Z,14.14
2023-05-16T09:31:38.680Z,14.31
2023-05-16T09:34:11.075Z,14.48
2023-05-16T09:36:37.716Z,14.57
2023-05-16T09:39:07.362Z,14.60
2023-05-16T09:41:35.403Z,14.76
2023-05-16T09:44:06.504Z,14.71
2023-05-16T09:46:34.834Z,14.82
2023-05-16T09:49:01.384Z,14.66
2023-05-16T09:51:28.633Z,14.34
2023-05-16T09:53:59.168Z,14.11
2023-05-16T09:56:25.661Z,14.08
2023-05-16T09:58:52.767Z,14.10
2023-05-16T10:01:19.518Z,14.00
2023-05-16T10:03:46.585Z,14.17
2023-05-16T10:06:13.727Z,14.55
2023-05-16T10:08:42.333Z,14.66
2023-05-16T10:11:09.288Z,14.50
2023-05-16T10:13:36.649Z,14.26
2023-05-16T10:16:09.520Z,14.25
2023-05-16T10:18:38.124Z,14.63
2023-05-16T10:21:09.632Z,14.81
2023-05-16T10:23:41.208Z,14.99
2023-05-16T10:26:08.988Z,15.25
2023-05-16T10:28:41.027Z,15.15
2023-05-16T10:31:09.832Z,14.81
2023-05-16T10:33:36.511Z,14.39
2023-05-16T10:36:05.199Z,14.36
2023-05-16T10:38:32.354Z,14.38
2023-05-16T10:40:58.816Z,14.26
2023-05-16T10:43:30.340Z,14.51
2023-05-16T10:46:02.444Z,14.67
2023-05-16T10:48:34.824Z,14.45
2023-05-16T10:51:05.598Z,14.50
2023-05-16T10:53:34.053Z,14.52
2023-05-16T10:56:03.296Z,14.55
2023-05-16T10:58:38.584Z,14.53
2023-05-16T11:01:25.593Z,14.90
2023-05-16T11:04:04.732Z,15.04
2023-05-16T11:06:35.817Z,15.14
2023-05-16T11:09:10.386Z,15.23
2023-05-16T11:11:51.879Z,15.01
2023-05-16T11:14:33.314Z,15.13
2023-05-16T11:17:14.426Z,15.04
2023-05-16T11:19:45.142Z,15.07
2023-05-16T11:22:21.668Z,14.89
2023-05-16T11:24:57.228Z,14.67
2023-05-16T11:27:33.292Z,14.59
2023-05-16T11:30:04.904Z,14.65
2023-05-16T11:32:35.028Z,14.43
2023-05-16T11:35:02.261Z,14.27
2023-05-16T11:37:29.588Z,14.23
2023-05-16T11:40:04.220Z,14.26
2023-05-16T11:42:32.237Z,14.10
2023-05-16T11:45:06.538Z,14.07
2023-05-16T11:47:33.334Z,14.18
2023-05-16T11:49:59.783Z,14.24
2023-05-16T11:52:27.851Z,14.26
2023-05-16T11:54:55.044Z,14.10
2023-05-16T11:57:21.755Z,13.92
2023-05-16T11:59:48.140Z,14.00
2023-05-16T12:02:14.778Z,13.96
2023-05-16T12:04:41.248Z,13.86
2023-05-16T12:07:08.037Z,13.75
2023-05-16T12:09:34.401Z,13.80
2023-05-16T12:12:05.753Z,13.70
2023-05-16T12:14:32.490Z,13.83
2023-05-16T12:16:59.453Z,13.89
2023-05-16T12:19:26.550Z,14.10
2023-05-16T12:21:54.440Z,14.19
2023-05-16T12:24:21.786Z,14.27
2023-05-16T12:26:48.252Z,14.07
2023-05-16T12:29:14.706Z,14.02
2023-05-16T12:31:41.943Z,13.91
2023-05-16T12:34:16.802Z,13.79
2023-05-16T12:36:44.389Z,13.92
2023-05-16T12:39:12.947Z,13.96
2023-05-16T12:41:43.287Z,13.96
2023-05-16T12:44:19.461Z,14.03
2023-05-16T12:46:55.242Z,13.96
2023-05-16T12:49:22.684Z,13.97
2023-05-16T12:51:54.978Z,14.25
2023-05-16T12:54:23.141Z,14.53
2023-05-16T12:56:49.985Z,14.53
2023-05-16T12:59:16.632Z,14.32
2023-05-16T13:01:44.395Z,14.19
2023-05-16T13:04:15.823Z,14.07
2023-05-16T13:06:57.777Z,13.83
2023-05-16T13:09:28.370Z,13.64
2023-05-16T13:11:57.673Z,13.51
2023-05-16T13:14:24.054Z,13.47
2023-05-16T13:16:50.717Z,13.56
2023-05-16T13:19:17.458Z,13.61
2023-05-16T13:21:43.931Z,13.81
2023-05-16T13:24:10.385Z,13.98
2023-05-16T13:26:36.824Z,13.88
2023-05-16T13:29:03.417Z,13.79
2023-05-16T13:31:29.884Z,13.69
2023-05-16T13:33:56.366Z,13.56
2023-05-16T13:36:23.478Z,13.44
2023-05-16T13:38:50.054Z,13.37
2023-05-16T13:41:16.573Z,13.35
2023-05-16T13:43:42.935Z,13.35
2023-05-16T13:46:09.697Z,13.38
2023-05-16T13:48:36.158Z,13.48
2023-05-16T13:51:02.758Z,13.64
2023-05-16T13:53:29.233Z,14.08
2023-05-16T13:55:55.630Z,14.26
2023-05-16T13:58:22.101Z,14.17
2023-05-16T14:00:48.755Z,13.89
2023-05-16T14:03:15.586Z,13.80
2023-05-16T14:05:42.387Z,13.63
2023-05-16T14:08:08.939Z,13.53
2023-05-16T14:10:35.363Z,13.49
2023-05-16T14:13:04.130Z,13.49
2023-05-16T14:15:30.951Z,13.45
2023-05-16T14:17:57.716Z,13.36
2023-05-16T14:20:24.271Z,13.31
2023-05-16T14:22:50.784Z,13.31
2023-05-16T14:25:17.577Z,13.46
2023-05-16T14:27:44.139Z,13.58
2023-05-16T14:30:10.975Z,13.60
2023-05-16T14:32:40.161Z,13.69
2023-05-16T14:35:08.989Z,13.79
2023-05-16T14:37:35.981Z,13.95
2023-05-16T14:40:02.385Z,13.95
2023-05-16T14:42:28.893Z,14.00
2023-05-16T14:44:55.292Z,13.92
2023-05-16T14:47:21.749Z,13.83
2023-05-16T14:49:48.121Z,13.72
2023-05-16T14:52:15.297Z,13.73
2023-05-16T14:54:41.701Z,13.79
2023-05-16T14:57:08.159Z,13.82
2023-05-16T14:59:34.600Z,13.76
2023-05-16T15:02:01.379Z,13.70
2023-05-16T15:04:28.684Z,13.65
2023-05-16T15:06:55.478Z,13.53
2023-05-16T15:09:22.006Z,13.52
2023-05-16T15:11:48.407Z,13.56
2023-05-16T15:14:14.831Z,13.59
2023-05-16T15:16:41.819Z,13.69
2023-05-16T15:19:08.694Z,13.77
2023-05-16T15:21:35.412Z,13.79
2023-05-16T15:24:01.875Z,13.81
2023-05-16T15:26:28.481Z,13.86
2023-05-16T15:28:55.671Z,13.86
2023-05-16T15:31:22.339Z,13.76
2023-05-16T15:33:49.010Z,13.72
2023-05-16T15:36:15.551Z,13.72
2023-05-16T15:38:45.279Z,13.78
2023-05-16T15:41:22.297Z,13.75
2023-05-16T15:43:53.187Z,13.73
2023-05-16T15:46:19.795Z,13.73
2023-05-16T15:48:46.360Z,13.71
2023-05-16T15:51:13.418Z,13.70
2023-05-16T15:53:39.931Z,13.66
2023-05-16T15:56:07.041Z,13.56
2023-05-16T15:58:33.622Z,13.50
2023-05-16T16:01:00.291Z,13.44
2023-05-16T16:03:27.913Z,13.38
2023-05-16T16:05:54.567Z,13.35
2023-05-16T16:08:21.300Z,13.27
2023-05-16T16:10:47.755Z,13.24
2023-05-16T16:13:14.174Z,13.20
2023-05-16T16:15:42.137Z,13.11
2023-05-16T16:18:09.166Z,13.05
2023-05-16T16:20:35.706Z,13.02
2023-05-16T16:23:02.108Z,12.97
2023-05-16T16:25:28.735Z,12.95
2023-05-16T16:27:55.792Z,12.90
2023-05-16T16:30:22.153Z,12.86
2023-05-16T16:32:48.932Z,12.74
2023-05-16T16:35:15.697Z,12.66
2023-05-16T16:37:46.644Z,12.67
2023-05-16T16:40:21.300Z,12.58
2023-05-16T16:42:47.755Z,12.53
2023-05-16T16:45:14.341Z,12.50
2023-05-16T16:47:40.961Z,12.51
2023-05-16T16:50:08.776Z,12.47
2023-05-16T16:52:35.444Z,12.48
2023-05-16T16:55:02.487Z,12.51
2023-05-16T16:57:28.913Z,12.57
2023-05-16T16:59:55.366Z,12.66
2023-05-16T17:02:22.140Z,12.71
2023-05-16T17:04:48.567Z,12.73
2023-05-16T17:07:14.960Z,12.72
2023-05-16T17:09:43.062Z,12.68
2023-05-16T17:12:18.761Z,12.66
2023-05-16T17:14:49.847Z,12.61
2023-05-16T17:17:17.104Z,12.59
2023-05-16T17:19:46.777Z,12.53
2023-05-16T17:22:13.944Z,12.45
2023-05-16T17:24:40.345Z,12.43
2023-05-16T17:27:06.962Z,12.43
2023-05-16T17:29:33.364Z,12.44
2023-05-16T17:32:00.065Z,12.38
2023-05-16T17:34:26.731Z,12.37
2023-05-16T17:36:53.359Z,12.37
2023-05-16T17:39:20.799Z,12.40
2023-05-16T17:41:47.481Z,12.40
2023-05-16T17:44:13.914Z,12.38
2023-05-16T17:46:40.470Z,12.36
2023-05-16T17:49:07.894Z,12.32
2023-05-16T17:51:48.525Z,12.34
2023-05-16T17:54:16.189Z,12.32
2023-05-16T17:56:42.830Z,12.33
2023-05-16T17:59:10.687Z,12.36
2023-05-16T18:01:38.161Z,12.37
2023-05-16T18:04:06.953Z,12.43
2023-05-16T18:06:34.724Z,12.48
2023-05-16T18:09:01.625Z,12.56
2023-05-16T18:11:28.037Z,12.56
2023-05-16T18:13:54.517Z,12.54
2023-05-16T18:16:23.361Z,12.52
2023-05-16T18:18:49.903Z,12.51
2023-05-16T18:21:16.709Z,12.45
2023-05-16T18:23:43.089Z,12.42
2023-05-16T18:26:09.701Z,12.37
2023-05-16T18:28:36.197Z,12.32
2023-05-16T18:31:03.502Z,12.32
2023-05-16T18:33:30.336Z,12.30
2023-05-16T18:35:56.761Z,12.25
2023-05-16T18:38:32.070Z,12.18
2023-05-16T18:41:00.056Z,12.11
2023-05-16T18:43:26.566Z,12.08
2023-05-16T18:45:52.928Z,12.02
2023-05-16T18:48:19.428Z,11.98
2023-05-16T18:50:45.941Z,11.95
2023-05-16T18:53:12.308Z,11.93
2023-05-16T18:55:38.745Z,11.88
2023-05-16T18:58:05.386Z,11.82
2023-05-16T19:00:31.826Z,11.81
2023-05-16T19:02:58.270Z,11.78
2023-05-16T19:05:25.013Z,11.74
2023-05-16T19:07:51.521Z,11.68
2023-05-16T19:10:18.045Z,11.62
2023-05-16T19:12:46.804Z,11.56
2023-05-16T19:15:13.249Z,11.52
2023-05-16T19:17:41.597Z,11.47
2023-05-16T19:20:11.987Z,11.43
2023-05-16T19:22:38.363Z,11.36
2023-05-16T19:25:05.726Z,11.32
2023-05-16T19:27:32.606Z,11.26
2023-05-16T19:29:58.953Z,11.16
2023-05-16T19:32:25.424Z,11.12
2023-05-16T19:34:52.241Z,11.09
2023-05-16T19:37:18.757Z,11.05
2023-05-16T19:39:45.170Z,11.00
2023-05-16T19:42:11.534Z,10.95
2023-05-16T19:44:37.914Z,10.89
2023-05-16T19:47:04.593Z,10.82
2023-05-16T19:49:31.702Z,10.74
2023-05-16T19:51:58.112Z,10.66
2023-05-16T19:54:26.062Z,10.61
2023-05-16T19:56:52.533Z,10.54
2023-05-16T19:59:18.982Z,10.47
2023-05-16T20:01:45.873Z,10.42
2023-05-16T20:04:12.673Z,10.38
2023-05-16T20:06:39.385Z,10.33
2023-05-16T20:09:06.232Z,10.29
2023-05-16T20:11:33.097Z,10.28
2023-05-16T20:14:00.072Z,10.28
2023-05-16T20:16:27.532Z,10.26
2023-05-16T20:18:54.192Z,10.24
2023-05-16T20:21:20.726Z,10.21
2023-05-16T20:23:47.143Z,10.20
2023-05-16T20:26:16.114Z,10.17
2023-05-16T20:28:42.504Z,10.17
2023-05-16T20:31:09.115Z,10.17
2023-05-16T20:33:35.620Z,10.16
2023-05-16T20:36:02.261Z,10.10
2023-05-16T20:38:28.654Z,10.10
2023-05-16T20:40:55.046Z,10.08
2023-05-16T20:43:21.528Z,10.06
2023-05-16T20:45:47.944Z,10.02
2023-05-16T20:48:14.433Z,10.03
2023-05-16T20:50:40.872Z,9.99
2023-05-16T20:53:07.463Z,9.97
2023-05-16T20:55:33.857Z,9.90
2023-05-16T20:58:00.760Z,9.81
2023-05-16T21:00:27.149Z,9.77
2023-05-16T21:02:53.625Z,9.77
2023-05-16T21:05:25.499Z,9.76
2023-05-16T21:07:53.090Z,9.74
2023-05-16T21:10:19.675Z,9.71
2023-05-16T21:12:46.088Z,9.66
2023-05-16T21:15:12.636Z,9.61
2023-05-16T21:17:40.744Z,9.58
2023-05-16T21:20:08.203Z,9.51
2023-05-16T21:22:34.656Z,9.45
2023-05-16T21:25:01.056Z,9.43
2023-05-16T21:27:27.414Z,9.40
2023-05-16T21:29:54.026Z,9.37
2023-05-16T21:32:20.793Z,9.31
2023-05-16T21:34:47.213Z,9.26
2023-05-16T21:37:13.648Z,9.25
2023-05-16T21:39:40.017Z,9.20
2023-05-16T21:42:06.635Z,9.17
2023-05-16T21:44:33.248Z,9.14
2023-05-16T21:46:59.605Z,9.10
2023-05-16T21:49:26.136Z,9.06
2023-05-16T21:51:52.526Z,9.01
2023-05-16T21:54:18.900Z,8.97
2023-05-16T21:56:45.565Z,8.95
2023-05-16T21:59:13.747Z,8.93
2023-05-16T22:01:40.121Z,8.87
2023-05-16T22:04:06.792Z,8.83
2023-05-16T22:06:33.373Z,8.77
2023-05-16T22:09:01.408Z,8.74
2023-05-16T22:11:28.446Z,8.72
2023-05-16T22:13:54.847Z,8.70
2023-05-16T22:16:21.315Z,8.66
2023-05-16T22:18:47.806Z,8.64
2023-05-16T22:21:16.184Z,8.61
2023-05-16T22:23:42.712Z,8.60
2023-05-16T22:26:09.822Z,8.57
2023-05-16T22:28:36.235Z,8.54
2023-05-16T22:31:02.783Z,8.52
2023-05-16T22:33:29.197Z,8.50
2023-05-16T22:35:56.327Z,8.48
2023-05-16T22:38:22.739Z,8.48
2023-05-16T22:40:49.242Z,8.43
2023-05-16T22:43:15.755Z,8.40
2023-05-16T22:45:42.110Z,8.40
2023-05-16T22:48:08.670Z,8.38
2023-05-16T22:50:35.246Z,8.33
2023-05-16T22:53:01.632Z,8.30
2023-05-16T22:55:28.279Z,8.29
2023-05-16T22:57:57.105Z,8.26
2023-05-16T23:00:23.715Z,8.22
2023-05-16T23:02:50.216Z,8.21
2023-05-16T23:05:16.916Z,8.20
2023-05-16T23:07:43.293Z,8.19
2023-05-16T23:10:09.819Z,8.18
2023-05-16T23:12:36.380Z,8.19
2023-05-16T23:15:03.181Z,8.19
2023-05-16T23:17:29.669Z,8.16
2023-05-16T23:19:56.198Z,8.16
2023-05-16T23:22:22.719Z,8.16
2023-05-16T23:24:51.396Z,8.15
2023-05-16T23:27:17.782Z,8.12
2023-05-16T23:29:44.129Z,8.11
2023-05-16T23:32:10.499Z,8.10
2023-05-16T23:34:36.951Z,8.12
2023-05-16T23:37:03.424Z,8.13
2023-05-16T23:39:29.854Z,8.18
2023-05-16T23:41:56.250Z,8.21
2023-05-16T23:44:22.607Z,8.19
2023-05-16T23:46:48.967Z,8.14
2023-05-16T23:49:15.373Z,8.12
2023-05-16T23:51:52.838Z,8.07
2023-05-16T23:54:23.669Z,7.92
2023-05-16T23:56:50.114Z,7.83
2023-05-16T23:59:16.594Z,7.77
